createdAt,value
2022-10-12T00:00:43.866Z,14.80
2022-10-12T00:05:43.781Z,13.60
2022-10-12T00:10:43.762Z,15.10
2022-10-12T00:15:43.644Z,14.90
2022-10-12T00:20:43.735Z,13.30
2022-10-12T00:25:43.503Z,13.40
2022-10-12T00:30:43.483Z,11.90
2022-10-12T00:35:43.381Z,15.10
2022-10-12T00:40:43.382Z,13.30
2022-10-12T00:45:43.236Z,13.80
2022-10-12T00:50:43.197Z,13.60
2022-10-12T00:55:43.119Z,15.90
2022-10-12T01:00:43.096Z,16.50
2022-10-12T01:05:43.012Z,17.20
2022-10-12T01:10:42.896Z,15.80
2022-10-12T01:15:50.899Z,13.40
2022-10-12T01:20:51.002Z,13.80
2022-10-12T01:25:42.701Z,15.00
2022-10-12T01:30:42.654Z,13.20
2022-10-12T01:35:42.613Z,14.00
2022-10-12T01:40:42.482Z,16.00
2022-10-12T01:45:42.507Z,16.00
2022-10-12T01:50:42.388Z,15.40
2022-10-12T01:55:42.290Z,13.40
2022-10-12T02:00:42.307Z,13.90
2022-10-12T02:05:42.192Z,15.50
2022-10-12T02:10:42.108Z,15.40
2022-10-12T02:15:42.884Z,13.00
2022-10-12T02:20:41.969Z,11.60
2022-10-12T02:25:41.991Z,14.50
2022-10-12T02:30:41.832Z,13.00
2022-10-12T02:35:41.787Z,12.00
2022-10-12T02:40:41.707Z,14.80
2022-10-12T02:45:41.632Z,11.40
2022-10-12T02:50:41.566Z,15.50
2022-10-12T02:55:41.546Z,14.60
2022-10-12T03:00:41.442Z,12.70
2022-10-12T03:05:41.412Z,13.20
2022-10-12T03:10:41.338Z,12.10
2022-10-12T03:15:41.312Z,12.40
2022-10-12T03:20:41.206Z,12.90
2022-10-12T03:25:41.104Z,12.90
2022-10-12T03:30:41.457Z,13.30
2022-10-12T03:35:40.978Z,14.00
2022-10-12T03:40:40.924Z,13.30
2022-10-12T03:45:40.881Z,12.90
2022-10-12T03:50:40.835Z,15.00
2022-10-12T03:55:40.756Z,13.80
2022-10-12T04:00:40.668Z,13.30
2022-10-12T04:05:40.661Z,13.20
2022-10-12T04:10:40.526Z,13.40
2022-10-12T04:15:40.522Z,13.20
2022-10-12T04:20:40.404Z,15.10
2022-10-12T04:25:40.348Z,13.20
2022-10-12T04:30:40.324Z,14.70
2022-10-12T04:35:40.219Z,14.60
2022-10-12T04:40:40.157Z,17.70
2022-10-12T04:45:40.111Z,13.80
2022-10-12T04:50:47.106Z,13.40
2022-10-12T04:55:39.957Z,13.30
2022-10-12T05:00:39.877Z,11.90
2022-10-12T05:05:39.873Z,12.70
2022-10-12T05:10:39.928Z,12.50
2022-10-12T05:15:39.724Z,13.60
2022-10-12T05:20:39.642Z,11.60
2022-10-12T05:25:39.720Z,14.30
2022-10-12T05:30:39.752Z,13.70
2022-10-12T05:35:41.865Z,13.50
2022-10-12T05:40:40.547Z,12.50
2022-10-12T05:45:39.321Z,12.40
2022-10-12T05:50:39.233Z,12.20
2022-10-12T05:55:39.185Z,12.50
2022-10-12T06:00:39.090Z,12.40
2022-10-12T06:05:39.045Z,14.10
2022-10-12T06:10:39.029Z,11.80
2022-10-12T06:15:38.940Z,9.50
2022-10-12T06:20:38.869Z,10.00
2022-10-12T06:25:38.887Z,10.30
2022-10-12T06:30:38.744Z,8.30
2022-10-12T06:35:38.641Z,9.00
2022-10-12T06:40:39.321Z,8.80
2022-10-12T06:45:38.506Z,9.10
2022-10-12T06:50:38.453Z,8.50
2022-10-12T06:55:38.354Z,8.20
2022-10-12T07:00:38.293Z,10.70
2022-10-12T07:05:38.283Z,10.30
2022-10-12T07:10:38.185Z,8.90
2022-10-12T07:15:38.095Z,9.20
2022-10-12T07:20:38.036Z,9.90
2022-10-12T07:25:38.016Z,9.60
2022-10-12T07:30:37.901Z,10.30
2022-10-12T07:35:51.471Z,9.40
2022-10-12T07:40:38.809Z,8.80
2022-10-12T07:45:37.706Z,7.50
2022-10-12T07:50:37.822Z,9.20
2022-10-12T07:55:37.601Z,6.50
2022-10-12T08:00:37.501Z,8.60
2022-10-12T08:05:37.552Z,12.50
2022-10-12T08:10:37.390Z,9.40
2022-10-12T08:15:37.324Z,12.00
2022-10-12T08:20:37.225Z,10.60
2022-10-12T08:25:37.174Z,9.80
2022-10-12T08:30:37.106Z,8.80
2022-10-12T08:35:37.814Z,11.60
2022-10-12T08:40:37.004Z,9.10
2022-10-12T08:45:36.938Z,8.40
2022-10-12T08:50:36.866Z,10.50
2022-10-12T08:55:36.783Z,7.10
2022-10-12T09:00:36.761Z,8.40
2022-10-12T09:05:36.645Z,9.00
2022-10-12T09:10:36.583Z,9.10
2022-10-12T09:15:36.508Z,9.80
2022-10-12T09:20:36.447Z,7.70
2022-10-12T09:25:36.368Z,9.00
2022-10-12T09:30:36.614Z,11.30
2022-10-12T09:35:36.222Z,11.80
2022-10-12T09:40:36.159Z,8.40
2022-10-12T09:45:36.122Z,9.70
2022-10-12T09:50:36.049Z,9.10
2022-10-12T09:55:36.000Z,10.00
2022-10-12T10:00:35.891Z,9.70
2022-10-12T10:05:35.874Z,8.30
2022-10-12T10:10:35.760Z,10.10
2022-10-12T10:15:35.721Z,9.40
2022-10-12T10:20:35.609Z,12.20
2022-10-12T10:25:35.570Z,10.60
2022-10-12T10:30:40.579Z,7.30
2022-10-12T10:35:36.423Z,6.90
2022-10-12T10:40:35.378Z,8.40
2022-10-12T10:45:35.316Z,9.00
2022-10-12T10:50:35.293Z,8.50
2022-10-12T10:55:35.165Z,9.00
2022-10-12T11:00:40.304Z,6.50
2022-10-12T11:05:36.116Z,9.20
2022-10-12T11:10:34.958Z,7.10
2022-10-12T11:15:34.950Z,8.10
2022-10-12T11:20:34.891Z,7.40
2022-10-12T11:25:34.898Z,7.80
2022-10-12T11:30:34.862Z,7.70
2022-10-12T11:35:35.840Z,8.40
2022-10-12T11:41:02.467Z,7.10
2022-10-12T11:45:35.471Z,7.60
2022-10-12T11:50:34.498Z,8.40
2022-10-12T11:55:34.341Z,9.30
2022-10-12T12:00:34.322Z,6.90
2022-10-12T12:05:34.447Z,8.20
2022-10-12T12:10:34.157Z,6.40
2022-10-12T12:15:34.108Z,7.50
2022-10-12T12:20:34.060Z,8.80
2022-10-12T12:25:33.937Z,8.20
2022-10-12T12:30:33.870Z,9.10
2022-10-12T12:35:33.810Z,8.50
2022-10-12T12:40:33.826Z,7.30
2022-10-12T12:45:33.818Z,8.50
2022-10-12T12:50:33.633Z,6.10
2022-10-12T12:55:33.554Z,7.60
2022-10-12T13:00:38.138Z,8.10
2022-10-12T13:05:34.443Z,7.00
2022-10-12T13:10:33.532Z,9.20
2022-10-12T13:15:33.284Z,7.60
2022-10-12T13:20:33.225Z,8.30
2022-10-12T13:25:33.149Z,6.90
2022-10-12T13:30:33.095Z,7.00
2022-10-12T13:35:33.022Z,8.80
2022-10-12T13:40:32.997Z,8.70
2022-10-12T13:45:32.923Z,7.20
2022-10-12T13:50:32.856Z,6.20
2022-10-12T13:55:32.786Z,6.00
2022-10-12T14:00:32.707Z,6.80
2022-10-12T14:05:32.653Z,9.20
2022-10-12T14:10:32.586Z,7.40
2022-10-12T14:15:32.521Z,5.80
2022-10-12T14:20:32.451Z,7.40
2022-10-12T14:25:32.362Z,7.80
2022-10-12T14:30:32.314Z,8.40
2022-10-12T14:35:32.249Z,8.40
2022-10-12T14:40:32.194Z,8.50
2022-10-12T14:45:32.131Z,8.80
2022-10-12T14:50:32.046Z,8.60
2022-10-12T14:55:31.991Z,11.70
2022-10-12T15:00:31.914Z,7.10
2022-10-12T15:05:31.892Z,7.50
2022-10-12T15:10:31.771Z,9.30
2022-10-12T15:15:31.716Z,9.20
2022-10-12T15:20:32.052Z,9.80
2022-10-12T15:25:31.573Z,9.20
2022-10-12T15:30:31.541Z,8.50
2022-10-12T15:35:31.446Z,8.80
2022-10-12T15:40:31.395Z,8.80
2022-10-12T15:45:31.373Z,10.60
2022-10-12T15:50:31.247Z,11.40
2022-10-12T15:55:31.166Z,7.60
2022-10-12T16:00:31.474Z,12.30
2022-10-12T16:05:31.040Z,7.40
2022-10-12T16:10:30.984Z,11.40
2022-10-12T16:15:30.898Z,11.30
2022-10-12T16:20:30.839Z,12.60
2022-10-12T16:25:30.778Z,10.20
2022-10-12T16:30:37.759Z,11.30
2022-10-12T16:35:30.641Z,10.20
2022-10-12T16:40:30.591Z,9.20
2022-10-12T16:45:30.512Z,10.90
2022-10-12T16:50:30.464Z,13.10
2022-10-12T16:55:30.384Z,10.30
2022-10-12T17:00:30.399Z,10.40
2022-10-12T17:05:30.265Z,11.60
2022-10-12T17:10:30.190Z,11.70
2022-10-12T17:15:30.102Z,12.60
2022-10-12T17:20:30.094Z,14.00
2022-10-12T17:25:29.977Z,12.80
2022-10-12T17:30:30.094Z,11.00
2022-10-12T17:35:29.852Z,11.30
2022-10-12T17:40:29.822Z,11.70
2022-10-12T17:45:29.731Z,12.40
2022-10-12T17:50:29.632Z,15.50
2022-10-12T17:55:47.555Z,15.80
2022-10-12T18:00:30.533Z,14.00
2022-10-12T18:05:29.440Z,13.80
2022-10-12T18:10:29.421Z,14.40
2022-10-12T18:15:29.312Z,14.50
2022-10-12T18:20:29.303Z,14.20
2022-10-12T18:25:29.221Z,15.90
2022-10-12T18:30:29.198Z,14.10
2022-10-12T18:35:29.379Z,17.30
2022-10-12T18:40:29.010Z,18.40
2022-10-12T18:45:28.916Z,15.40
2022-10-12T18:50:28.859Z,17.00
2022-10-12T18:55:28.827Z,15.00
2022-10-12T19:00:28.799Z,16.10
2022-10-12T19:05:28.656Z,16.30
2022-10-12T19:10:28.582Z,16.10
2022-10-12T19:15:28.554Z,17.00
2022-10-12T19:20:28.504Z,17.60
2022-10-12T19:25:28.416Z,18.20
2022-10-12T19:30:28.406Z,16.70
2022-10-12T19:35:28.235Z,15.50
2022-10-12T19:40:28.361Z,17.70
2022-10-12T19:45:28.158Z,20.00
2022-10-12T19:50:28.049Z,20.70
2022-10-12T19:55:27.966Z,19.10
2022-10-12T20:00:28.045Z,20.00
2022-10-12T20:05:27.828Z,20.00
2022-10-12T20:10:27.764Z,18.30
2022-10-12T20:15:27.860Z,17.60
2022-10-12T20:20:27.633Z,19.10
2022-10-12T20:25:27.588Z,20.70
2022-10-12T20:30:27.502Z,19.40
2022-10-12T20:35:27.427Z,19.00
2022-10-12T20:40:27.388Z,20.50
2022-10-12T20:45:27.319Z,21.40
2022-10-12T20:50:27.231Z,21.00
2022-10-12T20:55:27.166Z,20.30
2022-10-12T21:00:27.099Z,20.80
2022-10-12T21:05:27.049Z,18.50
2022-10-12T21:10:27.024Z,20.30
2022-10-12T21:15:26.916Z,20.40
2022-10-12T21:20:27.048Z,17.10
2022-10-12T21:25:27.673Z,21.40
2022-10-12T21:30:26.720Z,20.70
2022-10-12T21:35:26.644Z,19.40
2022-10-12T21:40:26.604Z,22.70
2022-10-12T21:45:26.568Z,23.30
2022-10-12T21:50:26.492Z,20.30
2022-10-12T21:55:26.431Z,23.00
2022-10-12T22:00:26.431Z,20.20
2022-10-12T22:05:26.280Z,23.10
2022-10-12T22:10:26.344Z,20.00
2022-10-12T22:15:26.159Z,22.60
2022-10-12T22:20:26.073Z,21.80
2022-10-12T22:25:26.024Z,22.80
2022-10-12T22:30:25.985Z,23.70
2022-10-12T22:35:25.893Z,22.00
2022-10-12T22:40:25.847Z,21.60
2022-10-12T22:45:28.073Z,24.60
2022-10-12T22:50:25.790Z,20.90
2022-10-12T22:55:25.617Z,22.70
2022-10-12T23:00:25.613Z,21.20
2022-10-12T23:05:25.492Z,23.50
2022-10-12T23:10:25.436Z,23.60
2022-10-12T23:15:25.398Z,18.70
2022-10-12T23:20:25.359Z,19.30
2022-10-12T23:25:25.240Z,20.70
2022-10-12T23:30:25.155Z,19.10
2022-10-12T23:35:25.097Z,16.80
2022-10-12T23:40:25.043Z,20.90
2022-10-12T23:45:24.952Z,18.40
2022-10-12T23:50:24.932Z,19.40
2022-10-12T23:55:24.870Z,20.00
